sensor_id;sensor_type;location;lat;lon;timestamp;P1;durP1;ratioP1;P2;durP2;ratioP2
49900;SDS011;35789;48.414;12.768;2022-10-31T00:00:00;80.5;;;9.0;;
49900;SDS011;35789;48.414;12.768;2022-10-31T00:05:00;80.5;;;9.0;;
49900;SDS011;35789;48.414;12.768;2022-10-31T00:10:00;80.5;;;9.0;;
49900;SDS011;35789;48.414;12.768;2022-10-31T00:15:00;80.5;;;9.0;;
49900;SDS011;35789;48.414;12.768;2022-10-31T00:20:00;32.4;;;7.3;;
49900;SDS011;35789;48.414;12.768;2022-10-31T00:25:00;32.4;;;7.3;;
49900;SDS011;35789;48.414;12.768;2022-10-31T00:30:00;32.4;;;7.3;;
49900;SDS011;35789;48.414;12.768;2022-10-31T00:35:00;32.4;;;7.3;;
49900;SDS011;35789;48.414;12.768;2022-10-31T00:40:00;unavailable;;;unavailable;;
49900;SDS011;35789;48.414;12.768;2022-10-31T00:45:00;25.6;;;6.8;;
49900;SDS011;35789;48.414;12.768;2022-10-31T00:50:00;25.6;;;6.8;;
49900;SDS011;35789;48.414;12.768;2022-10-31T00:55:00;25.6;;;6.8;;
49900;SDS011;35789;48.414;12.768;2022-10-31T01:00:00;25.6;;;6.8;;
49900;SDS011;35789;48.414;12.768;2022-10-31T01:05:00;25.6;;;6.8;;
49900;SDS011;35789;48.414;12.768;2022-10-31T01:10:00;25.6;;;6.8;;
49900;SDS011;35789;48.414;12.768;2022-10-31T01:15:00;59.9;;;6.8;;
49900;SDS011;35789;48.414;12.768;2022-10-31T01:20:00;59.9;;;6.8;;
49900;SDS011;35789;48.414;12.768;2022-10-31T01:25:00;59.9;;;6.8;;
49900;SDS011;35789;48.414;12.768;2022-10-31T01:30:00;59.9;;;6.8;;
49900;SDS011;35789;48.414;12.768;2022-10-31T01:35:00;59.9;;;6.8;;
49900;SDS011;35789;48.414;12.768;2022-10-31T01:40:00;59.9;;;6.8;;
49900;SDS011;35789;48.414;12.768;2022-10-31T01:45:01;53.5;;;7.1;;
49900;SDS011;35789;48.414;12.768;2022-10-31T01:50:03;53.5;;;7.1;;
49900;SDS011;35789;48.414;12.768;2022-10-31T01:55:04;53.5;;;7.1;;
49900;SDS011;35789;48.414;12.768;2022-10-31T02:00:03;53.5;;;7.1;;
49900;SDS011;35789;48.414;12.768;2022-10-31T02:05:02;53.5;;;7.1;;
49900;SDS011;35789;48.414;12.768;2022-10-31T02:10:00;53.5;;;7.1;;
49900;SDS011;35789;48.414;12.768;2022-10-31T02:15:00;18.4;;;5.7;;
49900;SDS011;35789;48.414;12.768;2022-10-31T02:20:07;18.4;;;5.7;;
49900;SDS011;35789;48.414;12.768;2022-10-31T02:25:11;18.4;;;5.7;;
49900;SDS011;35789;48.414;12.768;2022-10-31T02:30:05;18.4;;;5.7;;
49900;SDS011;35789;48.414;12.768;2022-10-31T02:35:08;18.4;;;5.7;;
49900;SDS011;35789;48.414;12.768;2022-10-31T02:40:06;18.4;;;5.7;;
49900;SDS011;35789;48.414;12.768;2022-10-31T02:45:07;32.8;;;6.0;;
49900;SDS011;35789;48.414;12.768;2022-10-31T02:50:02;32.8;;;6.0;;
49900;SDS011;35789;48.414;12.768;2022-10-31T02:55:09;32.8;;;6.0;;
49900;SDS011;35789;48.414;12.768;2022-10-31T03:00:03;32.8;;;6.0;;
49900;SDS011;35789;48.414;12.768;2022-10-31T03:05:11;32.8;;;6.0;;
49900;SDS011;35789;48.414;12.768;2022-10-31T03:10:05;32.8;;;6.0;;
49900;SDS011;35789;48.414;12.768;2022-10-31T03:15:08;67.2;;;7.6;;
49900;SDS011;35789;48.414;12.768;2022-10-31T03:20:00;67.2;;;7.6;;
49900;SDS011;35789;48.414;12.768;2022-10-31T03:25:03;67.2;;;7.6;;
49900;SDS011;35789;48.414;12.768;2022-10-31T03:30:03;67.2;;;7.6;;
49900;SDS011;35789;48.414;12.768;2022-10-31T03:35:02;67.2;;;7.6;;
49900;SDS011;35789;48.414;12.768;2022-10-31T03:40:02;67.2;;;7.6;;
49900;SDS011;35789;48.414;12.768;2022-10-31T03:45:04;36.2;;;6.1;;
49900;SDS011;35789;48.414;12.768;2022-10-31T03:50:00;36.2;;;6.1;;
49900;SDS011;35789;48.414;12.768;2022-10-31T03:55:05;36.2;;;6.1;;
49900;SDS011;35789;48.414;12.768;2022-10-31T04:00:04;36.2;;;6.1;;
49900;SDS011;35789;48.414;12.768;2022-10-31T04:05:01;36.2;;;6.1;;
49900;SDS011;35789;48.414;12.768;2022-10-31T04:10:02;36.2;;;6.1;;
49900;SDS011;35789;48.414;12.768;2022-10-31T04:15:01;48.4;;;6.7;;
49900;SDS011;35789;48.414;12.768;2022-10-31T04:20:00;48.4;;;6.7;;
49900;SDS011;35789;48.414;12.768;2022-10-31T04:25:00;48.4;;;6.7;;
49900;SDS011;35789;48.414;12.768;2022-10-31T04:30:00;48.4;;;6.7;;
49900;SDS011;35789;48.414;12.768;2022-10-31T04:35:00;48.4;;;6.7;;
49900;SDS011;35789;48.414;12.768;2022-10-31T04:40:00;48.4;;;6.7;;
49900;SDS011;35789;48.414;12.768;2022-10-31T04:45:00;28.0;;;5.9;;
49900;SDS011;35789;48.414;12.768;2022-10-31T04:50:00;28.0;;;5.9;;
49900;SDS011;35789;48.414;12.768;2022-10-31T04:55:00;28.0;;;5.9;;
49900;SDS011;35789;48.414;12.768;2022-10-31T05:00:00;28.0;;;5.9;;
49900;SDS011;35789;48.414;12.768;2022-10-31T05:05:00;28.0;;;5.9;;
49900;SDS011;35789;48.414;12.768;2022-10-31T05:10:00;28.0;;;5.9;;
49900;SDS011;35789;48.414;12.768;2022-10-31T05:15:00;54.5;;;6.5;;
49900;SDS011;35789;48.414;12.768;2022-10-31T05:20:00;54.5;;;6.5;;
49900;SDS011;35789;48.414;12.768;2022-10-31T05:25:00;54.5;;;6.5;;
49900;SDS011;35789;48.414;12.768;2022-10-31T05:30:00;unavailable;;;unavailable;;
49900;SDS011;35789;48.414;12.768;2022-10-31T05:35:00;54.5;;;6.5;;
49900;SDS011;35789;48.414;12.768;2022-10-31T05:40:00;54.5;;;6.5;;
49900;SDS011;35789;48.414;12.768;2022-10-31T05:45:00;27.6;;;5.1;;
49900;SDS011;35789;48.414;12.768;2022-10-31T05:50:00;27.6;;;5.1;;
49900;SDS011;35789;48.414;12.768;2022-10-31T05:55:00;27.6;;;5.1;;
49900;SDS011;35789;48.414;12.768;2022-10-31T06:00:00;27.6;;;5.1;;
49900;SDS011;35789;48.414;12.768;2022-10-31T06:05:00;27.6;;;5.1;;
49900;SDS011;35789;48.414;12.768;2022-10-31T06:10:00;27.6;;;5.1;;
49900;SDS011;35789;48.414;12.768;2022-10-31T06:15:00;53.8;;;6.2;;
49900;SDS011;35789;48.414;12.768;2022-10-31T06:20:00;53.8;;;6.2;;
49900;SDS011;35789;48.414;12.768;2022-10-31T06:25:00;53.8;;;6.2;;
49900;SDS011;35789;48.414;12.768;2022-10-31T06:30:00;53.8;;;6.2;;
49900;SDS011;35789;48.414;12.768;2022-10-31T06:35:00;53.8;;;6.2;;
49900;SDS011;35789;48.414;12.768;2022-10-31T06:40:00;53.8;;;6.2;;
49900;SDS011;35789;48.414;12.768;2022-10-31T06:45:00;13.5;;;5.8;;
49900;SDS011;35789;48.414;12.768;2022-10-31T06:50:00;13.5;;;5.8;;
49900;SDS011;35789;48.414;12.768;2022-10-31T06:55:00;13.5;;;5.8;;
49900;SDS011;35789;48.414;12.768;2022-10-31T07:00:00;13.5;;;5.8;;
49900;SDS011;35789;48.414;12.768;2022-10-31T07:05:00;13.5;;;5.8;;
49900;SDS011;35789;48.414;12.768;2022-10-31T07:10:00;13.5;;;5.8;;
49900;SDS011;35789;48.414;12.768;2022-10-31T07:15:00;22.7;;;8.9;;
49900;SDS011;35789;48.414;12.768;2022-10-31T07:20:00;22.7;;;8.9;;
49900;SDS011;35789;48.414;12.768;2022-10-31T07:25:00;22.7;;;8.9;;
49900;SDS011;35789;48.414;12.768;2022-10-31T07:30:00;22.7;;;8.9;;
49900;SDS011;35789;48.414;12.768;2022-10-31T07:35:00;22.7;;;8.9;;
49900;SDS011;35789;48.414;12.768;2022-10-31T07:40:00;22.7;;;8.9;;
49900;SDS011;35789;48.414;12.768;2022-10-31T07:45:00;11.3;;;6.3;;
49900;SDS011;35789;48.414;12.768;2022-10-31T07:50:00;11.3;;;6.3;;
49900;SDS011;35789;48.414;12.768;2022-10-31T07:55:00;11.3;;;6.3;;
49900;SDS011;35789;48.414;12.768;2022-10-31T08:00:00;11.3;;;6.3;;
49900;SDS011;35789;48.414;12.768;2022-10-31T08:05:00;11.3;;;6.3;;
49900;SDS011;35789;48.414;12.768;2022-10-31T08:10:00;11.3;;;6.3;;
49900;SDS011;35789;48.414;12.768;2022-10-31T08:15:00;11.9;;;7.3;;
49900;SDS011;35789;48.414;12.768;2022-10-31T08:20:00;11.9;;;7.3;;
49900;SDS011;35789;48.414;12.768;2022-10-31T08:25:00;11.9;;;7.3;;
49900;SDS011;35789;48.414;12.768;2022-10-31T08:30:00;11.9;;;7.3;;
49900;SDS011;35789;48.414;12.768;2022-10-31T08:35:00;11.9;;;7.3;;
49900;SDS011;35789;48.414;12.768;2022-10-31T08:40:00;11.9;;;7.3;;
49900;SDS011;35789;48.414;12.768;2022-10-31T08:45:00;14.1;;;7.3;;
49900;SDS011;35789;48.414;12.768;2022-10-31T08:50:00;14.1;;;7.3;;
49900;SDS011;35789;48.414;12.768;2022-10-31T08:55:00;unavailable;;;unavailable;;
49900;SDS011;35789;48.414;12.768;2022-10-31T09:00:00;14.1;;;7.3;;
49900;SDS011;35789;48.414;12.768;2022-10-31T09:05:00;14.1;;;7.3;;
49900;SDS011;35789;48.414;12.768;2022-10-31T09:10:00;14.1;;;7.3;;
49900;SDS011;35789;48.414;12.768;2022-10-31T09:15:00;11.8;;;7.4;;
49900;SDS011;35789;48.414;12.768;2022-10-31T09:20:00;11.8;;;7.4;;
49900;SDS011;35789;48.414;12.768;2022-10-31T09:25:00;11.8;;;7.4;;
49900;SDS011;35789;48.414;12.768;2022-10-31T09:30:00;11.8;;;7.4;;
49900;SDS011;35789;48.414;12.768;2022-10-31T09:35:00;11.8;;;7.4;;
49900;SDS011;35789;48.414;12.768;2022-10-31T09:40:00;11.8;;;7.4;;
49900;SDS011;35789;48.414;12.768;2022-10-31T09:45:03;15.1;;;7.9;;
49900;SDS011;35789;48.414;12.768;2022-10-31T09:50:12;15.1;;;7.9;;
49900;SDS011;35789;48.414;12.768;2022-10-31T09:55:05;15.1;;;7.9;;
49900;SDS011;35789;48.414;12.768;2022-10-31T10:00:01;15.1;;;7.9;;
49900;SDS011;35789;48.414;12.768;2022-10-31T10:05:01;15.1;;;7.9;;
49900;SDS011;35789;48.414;12.768;2022-10-31T10:10:02;15.1;;;7.9;;
49900;SDS011;35789;48.414;12.768;2022-10-31T10:20:14;13.5;;;7.2;;
49900;SDS011;35789;48.414;12.768;2022-10-31T10:25:13;13.5;;;7.2;;
49900;SDS011;35789;48.414;12.768;2022-10-31T10:30:02;13.5;;;7.2;;
49900;SDS011;35789;48.414;12.768;2022-10-31T10:40:06;13.5;;;7.2;;
49900;SDS011;35789;48.414;12.768;2022-10-31T10:45:06;16.7;;;7.6;;
49900;SDS011;35789;48.414;12.768;2022-10-31T10:50:02;16.7;;;7.6;;
49900;SDS011;35789;48.414;12.768;2022-10-31T10:55:06;16.7;;;7.6;;
49900;SDS011;35789;48.414;12.768;2022-10-31T11:00:02;16.7;;;7.6;;
49900;SDS011;35789;48.414;12.768;2022-10-31T11:05:01;16.7;;;7.6;;
49900;SDS011;35789;48.414;12.768;2022-10-31T11:10:04;16.7;;;7.6;;
49900;SDS011;35789;48.414;12.768;2022-10-31T11:15:05;18.2;;;8.7;;
49900;SDS011;35789;48.414;12.768;2022-10-31T11:20:03;18.2;;;8.7;;
49900;SDS011;35789;48.414;12.768;2022-10-31T11:25:00;18.2;;;8.7;;
49900;SDS011;35789;48.414;12.768;2022-10-31T11:30:05;18.2;;;8.7;;
49900;SDS011;35789;48.414;12.768;2022-10-31T11:35:02;18.2;;;8.7;;
49900;SDS011;35789;48.414;12.768;2022-10-31T11:40:05;18.2;;;8.7;;
49900;SDS011;35789;48.414;12.768;2022-10-31T11:45:02;16.2;;;8.7;;
49900;SDS011;35789;48.414;12.768;2022-10-31T11:50:02;16.2;;;8.7;;
49900;SDS011;35789;48.414;12.768;2022-10-31T11:55:14;16.2;;;8.7;;
49900;SDS011;35789;48.414;12.768;2022-10-31T12:00:04;16.2;;;8.7;;
49900;SDS011;35789;48.414;12.768;2022-10-31T12:05:04;16.2;;;8.7;;
49900;SDS011;35789;48.414;12.768;2022-10-31T12:10:00;16.2;;;8.7;;
49900;SDS011;35789;48.414;12.768;2022-10-31T12:15:14;17.8;;;8.1;;
49900;SDS011;35789;48.414;12.768;2022-10-31T12:20:06;17.8;;;8.1;;
49900;SDS011;35789;48.414;12.768;2022-10-31T12:25:12;17.8;;;8.1;;
49900;SDS011;35789;48.414;12.768;2022-10-31T12:30:12;17.8;;;8.1;;
49900;SDS011;35789;48.414;12.768;2022-10-31T12:35:15;17.8;;;8.1;;
49900;SDS011;35789;48.414;12.768;2022-10-31T12:40:12;17.8;;;8.1;;
49900;SDS011;35789;48.414;12.768;2022-10-31T12:45:13;17.2;;;9.2;;
49900;SDS011;35789;48.414;12.768;2022-10-31T12:50:13;17.2;;;9.2;;
49900;SDS011;35789;48.414;12.768;2022-10-31T12:55:10;17.2;;;9.2;;
49900;SDS011;35789;48.414;12.768;2022-10-31T13:00:02;17.2;;;9.2;;
49900;SDS011;35789;48.414;12.768;2022-10-31T13:05:03;17.2;;;9.2;;
49900;SDS011;35789;48.414;12.768;2022-10-31T13:10:04;17.2;;;9.2;;
49900;SDS011;35789;48.414;12.768;2022-10-31T13:15:04;19.5;;;9.5;;
49900;SDS011;35789;48.414;12.768;2022-10-31T13:20:13;19.5;;;9.5;;
49900;SDS011;35789;48.414;12.768;2022-10-31T13:25:09;19.5;;;9.5;;
49900;SDS011;35789;48.414;12.768;2022-10-31T13:30:02;19.5;;;9.5;;
49900;SDS011;35789;48.414;12.768;2022-10-31T13:35:00;19.5;;;9.5;;
49900;SDS011;35789;48.414;12.768;2022-10-31T13:40:12;19.5;;;9.5;;
49900;SDS011;35789;48.414;12.768;2022-10-31T13:45:11;18.7;;;9.1;;
49900;SDS011;35789;48.414;12.768;2022-10-31T13:50:05;18.7;;;9.1;;
49900;SDS011;35789;48.414;12.768;2022-10-31T13:55:00;18.7;;;9.1;;
49900;SDS011;35789;48.414;12.768;2022-10-31T14:00:05;18.7;;;9.1;;
49900;SDS011;35789;48.414;12.768;2022-10-31T14:05:02;18.7;;;9.1;;
49900;SDS011;35789;48.414;12.768;2022-10-31T14:10:03;18.7;;;9.1;;
49900;SDS011;35789;48.414;12.768;2022-10-31T14:15:04;19.2;;;9.1;;
49900;SDS011;35789;48.414;12.768;2022-10-31T14:25:00;19.2;;;9.1;;
49900;SDS011;35789;48.414;12.768;2022-10-31T14:30:12;19.2;;;9.1;;
49900;SDS011;35789;48.414;12.768;2022-10-31T14:35:01;19.2;;;9.1;;
49900;SDS011;35789;48.414;12.768;2022-10-31T14:40:10;19.2;;;9.1;;
49900;SDS011;35789;48.414;12.768;2022-10-31T14:45:15;17.7;;;8.6;;
49900;SDS011;35789;48.414;12.768;2022-10-31T14:50:17;17.7;;;8.6;;
49900;SDS011;35789;48.414;12.768;2022-10-31T14:55:01;17.7;;;8.6;;
49900;SDS011;35789;48.414;12.768;2022-10-31T15:00:03;17.7;;;8.6;;
49900;SDS011;35789;48.414;12.768;2022-10-31T15:05:01;17.7;;;8.6;;
49900;SDS011;35789;48.414;12.768;2022-10-31T15:10:02;17.7;;;8.6;;
49900;SDS011;35789;48.414;12.768;2022-10-31T15:15:10;25.2;;;11.1;;
49900;SDS011;35789;48.414;12.768;2022-10-31T15:20:00;25.2;;;11.1;;
49900;SDS011;35789;48.414;12.768;2022-10-31T15:25:00;25.2;;;11.1;;
49900;SDS011;35789;48.414;12.768;2022-10-31T15:30:00;25.2;;;11.1;;
49900;SDS011;35789;48.414;12.768;2022-10-31T15:35:00;25.2;;;11.1;;
49900;SDS011;35789;48.414;12.768;2022-10-31T15:40:06;25.2;;;11.1;;
49900;SDS011;35789;48.414;12.768;2022-10-31T15:45:02;26.9;;;14.6;;
49900;SDS011;35789;48.414;12.768;2022-10-31T15:50:01;26.9;;;14.6;;
49900;SDS011;35789;48.414;12.768;2022-10-31T15:55:03;26.9;;;14.6;;
49900;SDS011;35789;48.414;12.768;2022-10-31T16:00:00;26.9;;;14.6;;
49900;SDS011;35789;48.414;12.768;2022-10-31T16:05:01;26.9;;;14.6;;
49900;SDS011;35789;48.414;12.768;2022-10-31T16:10:02;26.9;;;14.6;;
49900;SDS011;35789;48.414;12.768;2022-10-31T16:15:00;30.1;;;16.1;;
49900;SDS011;35789;48.414;12.768;2022-10-31T16:20:02;30.1;;;16.1;;
49900;SDS011;35789;48.414;12.768;2022-10-31T16:25:03;30.1;;;16.1;;
49900;SDS011;35789;48.414;12.768;2022-10-31T16:30:01;30.1;;;16.1;;
49900;SDS011;35789;48.414;12.768;2022-10-31T16:40:00;30.1;;;16.1;;
49900;SDS011;35789;48.414;12.768;2022-10-31T16:45:00;29.4;;;17.3;;
49900;SDS011;35789;48.414;12.768;2022-10-31T16:50:00;29.4;;;17.3;;
49900;SDS011;35789;48.414;12.768;2022-10-31T16:55:00;29.4;;;17.3;;
49900;SDS011;35789;48.414;12.768;2022-10-31T17:00:00;29.4;;;17.3;;
49900;SDS011;35789;48.414;12.768;2022-10-31T17:05:00;29.4;;;17.3;;
49900;SDS011;35789;48.414;12.768;2022-10-31T17:10:01;29.4;;;17.3;;
49900;SDS011;35789;48.414;12.768;2022-10-31T17:15:00;29.1;;;14.7;;
49900;SDS011;35789;48.414;12.768;2022-10-31T17:20:00;29.1;;;14.7;;
49900;SDS011;35789;48.414;12.768;2022-10-31T17:25:00;29.1;;;14.7;;
49900;SDS011;35789;48.414;12.768;2022-10-31T17:30:00;29.1;;;14.7;;
49900;SDS011;35789;48.414;12.768;2022-10-31T17:35:00;29.1;;;14.7;;
49900;SDS011;35789;48.414;12.768;2022-10-31T17:40:00;29.1;;;14.7;;
49900;SDS011;35789;48.414;12.768;2022-10-31T17:45:00;24.6;;;14.9;;
49900;SDS011;35789;48.414;12.768;2022-10-31T17:50:00;24.6;;;14.9;;
49900;SDS011;35789;48.414;12.768;2022-10-31T17:55:00;24.6;;;14.9;;
49900;SDS011;35789;48.414;12.768;2022-10-31T18:00:00;24.6;;;14.9;;
49900;SDS011;35789;48.414;12.768;2022-10-31T18:05:00;24.6;;;14.9;;
49900;SDS011;35789;48.414;12.768;2022-10-31T18:10:00;33.6;;;20.2;;
49900;SDS011;35789;48.414;12.768;2022-10-31T18:15:00;33.6;;;20.2;;
49900;SDS011;35789;48.414;12.768;2022-10-31T18:20:00;33.6;;;20.2;;
49900;SDS011;35789;48.414;12.768;2022-10-31T18:25:00;33.6;;;20.2;;
49900;SDS011;35789;48.414;12.768;2022-10-31T18:30:00;33.6;;;20.2;;
49900;SDS011;35789;48.414;12.768;2022-10-31T18:35:00;33.6;;;20.2;;
49900;SDS011;35789;48.414;12.768;2022-10-31T18:40:00;32.5;;;19.4;;
49900;SDS011;35789;48.414;12.768;2022-10-31T18:45:00;32.5;;;19.4;;
49900;SDS011;35789;48.414;12.768;2022-10-31T18:50:00;32.5;;;19.4;;
49900;SDS011;35789;48.414;12.768;2022-10-31T18:55:00;32.5;;;19.4;;
49900;SDS011;35789;48.414;12.768;2022-10-31T19:00:00;32.5;;;19.4;;
49900;SDS011;35789;48.414;12.768;2022-10-31T19:05:00;32.5;;;19.4;;
49900;SDS011;35789;48.414;12.768;2022-10-31T19:10:00;40.8;;;24.1;;
49900;SDS011;35789;48.414;12.768;2022-10-31T19:15:00;40.8;;;24.1;;
49900;SDS011;35789;48.414;12.768;2022-10-31T19:20:00;40.8;;;24.1;;
49900;SDS011;35789;48.414;12.768;2022-10-31T19:25:00;40.8;;;24.1;;
49900;SDS011;35789;48.414;12.768;2022-10-31T19:30:00;40.8;;;24.1;;
49900;SDS011;35789;48.414;12.768;2022-10-31T19:35:00;40.8;;;24.1;;
49900;SDS011;35789;48.414;12.768;2022-10-31T19:40:00;37.1;;;22.7;;
49900;SDS011;35789;48.414;12.768;2022-10-31T19:45:00;37.1;;;22.7;;
49900;SDS011;35789;48.414;12.768;2022-10-31T19:50:00;37.1;;;22.7;;
49900;SDS011;35789;48.414;12.768;2022-10-31T19:55:00;37.1;;;22.7;;
49900;SDS011;35789;48.414;12.768;2022-10-31T20:00:00;37.1;;;22.7;;
49900;SDS011;35789;48.414;12.768;2022-10-31T20:05:00;37.1;;;22.7;;
49900;SDS011;35789;48.414;12.768;2022-10-31T20:10:00;36.9;;;20.2;;
49900;SDS011;35789;48.414;12.768;2022-10-31T20:15:00;36.9;;;20.2;;
49900;SDS011;35789;48.414;12.768;2022-10-31T20:20:00;36.9;;;20.2;;
49900;SDS011;35789;48.414;12.768;2022-10-31T20:25:00;36.9;;;20.2;;
49900;SDS011;35789;48.414;12.768;2022-10-31T20:30:00;36.9;;;20.2;;
49900;SDS011;35789;48.414;12.768;2022-10-31T20:35:00;36.9;;;20.2;;
49900;SDS011;35789;48.414;12.768;2022-10-31T20:40:00;33.2;;;18.5;;
49900;SDS011;35789;48.414;12.768;2022-10-31T20:45:00;33.2;;;18.5;;
49900;SDS011;35789;48.414;12.768;2022-10-31T20:50:00;33.2;;;18.5;;
49900;SDS011;35789;48.414;12.768;2022-10-31T20:55:00;33.2;;;18.5;;
49900;SDS011;35789;48.414;12.768;2022-10-31T21:00:00;33.2;;;18.5;;
49900;SDS011;35789;48.414;12.768;2022-10-31T21:05:00;33.2;;;18.5;;
49900;SDS011;35789;48.414;12.768;2022-10-31T21:10:00;31.1;;;17.6;;
49900;SDS011;35789;48.414;12.768;2022-10-31T21:15:00;31.1;;;17.6;;
49900;SDS011;35789;48.414;12.768;2022-10-31T21:20:00;31.1;;;17.6;;
49900;SDS011;35789;48.414;12.768;2022-10-31T21:25:00;31.1;;;17.6;;
49900;SDS011;35789;48.414;12.768;2022-10-31T21:30:00;31.1;;;17.6;;
49900;SDS011;35789;48.414;12.768;2022-10-31T21:35:00;31.1;;;17.6;;
49900;SDS011;35789;48.414;12.768;2022-10-31T21:40:00;30.2;;;15.3;;
49900;SDS011;35789;48.414;12.768;2022-10-31T21:45:00;30.2;;;15.3;;
49900;SDS011;35789;48.414;12.768;2022-10-31T21:50:00;30.2;;;15.3;;
49900;SDS011;35789;48.414;12.768;2022-10-31T21:55:00;30.2;;;15.3;;
49900;SDS011;35789;48.414;12.768;2022-10-31T22:00:00;30.2;;;15.3;;
49900;SDS011;35789;48.414;12.768;2022-10-31T22:05:00;30.2;;;15.3;;
49900;SDS011;35789;48.414;12.768;2022-10-31T22:10:00;24.2;;;12.9;;
49900;SDS011;35789;48.414;12.768;2022-10-31T22:15:00;24.2;;;12.9;;
49900;SDS011;35789;48.414;12.768;2022-10-31T22:20:00;24.2;;;12.9;;
49900;SDS011;35789;48.414;12.768;2022-10-31T22:25:00;24.2;;;12.9;;
49900;SDS011;35789;48.414;12.768;2022-10-31T22:30:00;24.2;;;12.9;;
49900;SDS011;35789;48.414;12.768;2022-10-31T22:35:00;24.2;;;12.9;;
49900;SDS011;35789;48.414;12.768;2022-10-31T22:40:00;19.4;;;10.2;;
49900;SDS011;35789;48.414;12.768;2022-10-31T22:45:00;19.4;;;10.2;;
49900;SDS011;35789;48.414;12.768;2022-10-31T22:50:00;19.4;;;10.2;;
49900;SDS011;35789;48.414;12.768;2022-10-31T22:55:00;19.4;;;10.2;;
49900;SDS011;35789;48.414;12.768;2022-10-31T23:00:00;19.4;;;10.2;;
49900;SDS011;35789;48.414;12.768;2022-10-31T23:05:00;19.4;;;10.2;;
49900;SDS011;35789;48.414;12.768;2022-10-31T23:10:00;18.2;;;10.7;;
49900;SDS011;35789;48.414;12.768;2022-10-31T23:15:00;18.2;;;10.7;;
49900;SDS011;35789;48.414;12.768;2022-10-31T23:20:00;18.2;;;10.7;;
49900;SDS011;35789;48.414;12.768;2022-10-31T23:25:00;18.2;;;10.7;;
49900;SDS011;35789;48.414;12.768;2022-10-31T23:30:00;18.2;;;10.7;;
49900;SDS011;35789;48.414;12.768;2022-10-31T23:35:01;18.2;;;10.7;;
49900;SDS011;35789;48.414;12.768;2022-10-31T23:40:00;67.1;;;16.9;;
49900;SDS011;35789;48.414;12.768;2022-10-31T23:45:00;67.1;;;16.9;;
49900;SDS011;35789;48.414;12.768;2022-10-31T23:50:00;67.1;;;16.9;;
49900;SDS011;35789;48.414;12.768;2022-10-31T23:55:00;67.1;;;16.9;;
